createdAt,value
2019-04-07T00:01:18.466Z,12.40
2019-04-07T00:03:47.363Z,12.40
2019-04-07T00:06:16.278Z,12.30
2019-04-07T00:08:45.393Z,12.30
2019-04-07T00:11:13.964Z,12.30
2019-04-07T00:13:42.658Z,12.30
2019-04-07T00:16:11.220Z,12.20
2019-04-07T00:18:40.047Z,12.20
2019-04-07T00:21:08.717Z,12.20
2019-04-07T00:23:37.581Z,12.10
2019-04-07T00:26:06.546Z,12.10
2019-04-07T00:28:35.194Z,12.10
2019-04-07T00:31:04.221Z,12.10
2019-04-07T00:33:33.443Z,12.10
2019-04-07T00:36:02.775Z,12.10
2019-04-07T00:38:31.655Z,12.00
2019-04-07T00:41:00.247Z,12.00
2019-04-07T00:43:31.955Z,11.90
2019-04-07T00:46:02.400Z,11.90
2019-04-07T00:48:31.120Z,11.80
2019-04-07T00:51:00.297Z,11.80
2019-04-07T00:53:29.995Z,11.80
2019-04-07T00:55:59.440Z,11.80
2019-04-07T00:58:28.179Z,11.70
2019-04-07T01:00:57.231Z,11.70
2019-04-07T01:03:26.037Z,11.60
2019-04-07T01:05:54.587Z,11.60
2019-04-07T01:08:23.310Z,11.60
2019-04-07T01:10:52.485Z,11.60
2019-04-07T01:13:20.870Z,11.60
2019-04-07T01:15:49.754Z,11.50
2019-04-07T01:18:18.594Z,11.50
2019-04-07T01:20:47.524Z,11.50
2019-04-07T01:23:16.234Z,11.50
2019-04-07T01:25:45.700Z,11.40
2019-04-07T01:28:14.879Z,11.40
2019-04-07T01:30:43.447Z,11.40
2019-04-07T01:33:12.756Z,11.30
2019-04-07T01:35:48.090Z,11.30
2019-04-07T01:38:12.509Z,11.20
2019-04-07T01:40:43.533Z,11.20
2019-04-07T01:43:29.896Z,11.10
2019-04-07T01:46:23.003Z,11.10
2019-04-07T01:48:59.856Z,11.00
2019-04-07T01:52:07.337Z,11.00
2019-04-07T01:54:52.624Z,10.90
2019-04-07T01:57:45.291Z,10.90
2019-04-07T02:00:28.006Z,10.90
2019-04-07T02:03:09.965Z,10.90
2019-04-07T02:06:01.746Z,10.90
2019-04-07T02:08:41.736Z,10.90
2019-04-07T02:11:19.527Z,10.90
2019-04-07T02:14:13.840Z,10.80
2019-04-07T02:17:02.049Z,10.80
2019-04-07T02:19:53.449Z,10.80
2019-04-07T02:22:40.798Z,10.70
2019-04-07T02:25:32.609Z,10.70
2019-04-07T02:28:20.985Z,10.60
2019-04-07T02:31:24.948Z,10.50
2019-04-07T02:34:07.310Z,10.50
2019-04-07T02:36:48.492Z,10.50
2019-04-07T02:39:35.081Z,10.50
2019-04-07T02:42:25.071Z,10.40
2019-04-07T02:45:25.088Z,10.40
2019-04-07T02:48:13.886Z,10.40
2019-04-07T02:51:13.993Z,10.30
2019-04-07T02:54:00.735Z,10.40
2019-04-07T02:56:48.981Z,10.30
2019-04-07T02:59:42.658Z,10.30
2019-04-07T03:02:17.782Z,10.20
2019-04-07T03:05:04.803Z,10.10
2019-04-07T03:07:48.726Z,10.20
2019-04-07T03:10:29.949Z,10.10
2019-04-07T03:13:24.502Z,10.10
2019-04-07T03:16:04.308Z,10.10
2019-04-07T03:18:52.933Z,10.10
2019-04-07T03:21:48.347Z,10.10
2019-04-07T03:24:43.311Z,10.10
2019-04-07T03:27:51.385Z,10.10
2019-04-07T03:30:42.783Z,10.10
2019-04-07T03:33:33.472Z,10.10
2019-04-07T03:37:09.728Z,10.10
2019-04-07T03:39:34.057Z,10.10
2019-04-07T03:42:28.477Z,10.10
2019-04-07T03:45:06.225Z,10.00
2019-04-07T03:47:41.894Z,9.90
2019-04-07T03:50:18.638Z,9.90
2019-04-07T03:53:12.779Z,10.00
2019-04-07T03:56:10.271Z,10.00
2019-04-07T03:58:49.424Z,10.00
2019-04-07T04:01:37.127Z,10.00
2019-04-07T04:04:24.463Z,10.10
2019-04-07T04:07:28.356Z,10.10
2019-04-07T04:10:10.189Z,10.00
2019-04-07T04:13:14.304Z,10.00
2019-04-07T04:15:48.141Z,10.10
2019-04-07T04:18:16.713Z,10.10
2019-04-07T04:20:46.355Z,10.10
2019-04-07T04:23:14.968Z,10.10
2019-04-07T04:25:43.690Z,10.10
2019-04-07T04:28:12.176Z,10.10
2019-04-07T04:30:41.896Z,10.10
2019-04-07T04:33:10.989Z,10.10
2019-04-07T04:35:40.830Z,10.20
2019-04-07T04:38:10.274Z,10.20
2019-04-07T04:40:39.676Z,10.20
2019-04-07T04:43:10.374Z,10.20
2019-04-07T04:45:39.374Z,10.20
2019-04-07T04:48:08.727Z,10.20
2019-04-07T04:50:39.511Z,10.20
2019-04-07T04:53:09.344Z,10.20
2019-04-07T04:55:39.187Z,10.30
2019-04-07T04:58:09.556Z,10.30
2019-04-07T05:00:38.505Z,10.30
2019-04-07T05:03:19.418Z,10.30
2019-04-07T05:05:48.342Z,10.30
2019-04-07T05:08:17.582Z,10.30
2019-04-07T05:10:46.238Z,10.30
2019-04-07T05:13:15.015Z,10.40
2019-04-07T05:15:43.543Z,10.40
2019-04-07T05:18:12.248Z,10.40
2019-04-07T05:20:40.939Z,10.50
2019-04-07T05:23:09.833Z,10.50
2019-04-07T05:25:38.254Z,10.60
2019-04-07T05:28:07.391Z,10.60
2019-04-07T05:30:36.610Z,10.60
2019-04-07T05:33:06.015Z,10.70
2019-04-07T05:35:35.075Z,10.70
2019-04-07T05:38:06.624Z,10.80
2019-04-07T05:40:34.609Z,10.90
2019-04-07T05:43:03.123Z,10.90
2019-04-07T05:45:31.600Z,11.00
2019-04-07T05:48:02.034Z,11.00
2019-04-07T05:50:31.841Z,11.00
2019-04-07T05:53:02.998Z,11.00
2019-04-07T05:55:32.055Z,11.00
2019-04-07T05:58:05.138Z,11.00
2019-04-07T06:00:34.014Z,11.10
2019-04-07T06:03:07.139Z,11.10
2019-04-07T06:05:33.488Z,11.10
2019-04-07T06:08:18.733Z,11.20
2019-04-07T06:10:33.695Z,11.20
2019-04-07T06:13:03.135Z,11.10
2019-04-07T06:15:32.451Z,11.10
2019-04-07T06:18:02.765Z,11.20
2019-04-07T06:20:31.482Z,11.20
2019-04-07T06:23:00.423Z,11.20
2019-04-07T06:25:34.726Z,11.20
2019-04-07T06:28:02.283Z,11.20
2019-04-07T06:30:32.905Z,11.20
2019-04-07T06:33:05.523Z,11.20
2019-04-07T06:35:32.419Z,11.30
2019-04-07T06:38:05.443Z,11.30
2019-04-07T06:40:32.398Z,11.30
2019-04-07T06:43:05.282Z,11.40
2019-04-07T06:45:39.989Z,11.30
2019-04-07T06:48:09.303Z,11.30
2019-04-07T06:50:49.862Z,11.40
2019-04-07T06:53:24.591Z,11.40
2019-04-07T06:56:33.471Z,11.50
2019-04-07T06:59:37.218Z,11.60
2019-04-07T07:02:22.467Z,11.60
2019-04-07T07:05:13.611Z,11.80
2019-04-07T07:08:13.327Z,11.80
2019-04-07T07:11:02.183Z,11.90
2019-04-07T07:13:55.376Z,12.00
2019-04-07T07:16:35.005Z,12.00
2019-04-07T07:19:28.575Z,12.10
2019-04-07T07:22:26.970Z,12.20
2019-04-07T07:24:59.022Z,12.40
2019-04-07T07:27:26.249Z,12.60
2019-04-07T07:29:55.502Z,12.70
2019-04-07T07:32:24.134Z,12.80
2019-04-07T07:34:52.832Z,12.90
2019-04-07T07:37:22.986Z,13.00
2019-04-07T07:39:51.993Z,12.90
2019-04-07T07:42:23.264Z,12.90
2019-04-07T07:44:51.460Z,13.00
2019-04-07T07:47:22.443Z,13.00
2019-04-07T07:49:50.955Z,13.00
2019-04-07T07:52:21.575Z,13.00
2019-04-07T07:54:53.527Z,13.00
2019-04-07T07:57:24.046Z,13.20
2019-04-07T07:59:52.794Z,13.80
2019-04-07T08:02:22.041Z,14.90
2019-04-07T08:04:51.094Z,16.40
2019-04-07T08:07:20.335Z,17.80
2019-04-07T08:09:49.395Z,19.10
2019-04-07T08:12:17.845Z,20.00
2019-04-07T08:14:49.724Z,20.90
2019-04-07T08:17:17.278Z,21.10
2019-04-07T08:19:46.645Z,21.50
2019-04-07T08:22:26.479Z,22.00
2019-04-07T08:24:50.174Z,22.20
2019-04-07T08:27:16.939Z,22.70
2019-04-07T08:29:46.234Z,22.70
2019-04-07T08:32:15.328Z,23.20
2019-04-07T08:34:44.761Z,24.10
2019-04-07T08:37:15.134Z,24.70
2019-04-07T08:39:44.637Z,25.40
2019-04-07T08:42:17.538Z,25.80
2019-04-07T08:44:45.162Z,26.00
2019-04-07T08:47:19.095Z,26.10
2019-04-07T08:49:44.391Z,26.40
2019-04-07T08:52:13.457Z,27.20
2019-04-07T08:54:42.225Z,27.10
2019-04-07T08:57:12.606Z,27.00
2019-04-07T08:59:42.993Z,27.50
2019-04-07T09:02:12.155Z,27.50
2019-04-07T09:04:41.341Z,27.10
2019-04-07T09:07:10.320Z,26.80
2019-04-07T09:09:44.985Z,27.00
2019-04-07T09:12:10.361Z,27.70
2019-04-07T09:14:40.723Z,28.30
2019-04-07T09:17:30.666Z,28.70
2019-04-07T09:20:17.921Z,29.10
2019-04-07T09:22:55.010Z,29.60
2019-04-07T09:25:42.968Z,29.40
2019-04-07T09:28:23.378Z,29.30
2019-04-07T09:31:16.510Z,29.00
2019-04-07T09:33:57.178Z,27.80
2019-04-07T09:36:41.950Z,27.10
2019-04-07T09:39:22.487Z,26.30
2019-04-07T09:42:11.943Z,25.30
2019-04-07T09:45:02.201Z,24.40
2019-04-07T09:47:51.233Z,23.70
2019-04-07T09:50:39.721Z,23.60
2019-04-07T09:53:27.336Z,24.80
2019-04-07T09:56:02.770Z,26.20
2019-04-07T09:58:53.570Z,27.30
2019-04-07T10:01:45.020Z,28.60
2019-04-07T10:04:29.945Z,28.70
2019-04-07T10:07:17.359Z,29.20
2019-04-07T10:10:12.297Z,29.80
2019-04-07T10:12:55.461Z,29.90
2019-04-07T10:15:44.249Z,28.80
2019-04-07T10:18:33.807Z,27.20
2019-04-07T10:21:28.077Z,27.10
2019-04-07T10:24:15.275Z,27.90
2019-04-07T10:26:54.056Z,29.00
2019-04-07T10:29:38.555Z,30.10
2019-04-07T10:32:27.833Z,31.00
2019-04-07T10:35:18.984Z,31.50
2019-04-07T10:37:56.977Z,32.00
2019-04-07T10:40:37.951Z,31.90
2019-04-07T10:43:22.874Z,32.50
2019-04-07T10:45:57.940Z,32.30
2019-04-07T10:48:49.910Z,32.40
2019-04-07T10:51:36.883Z,31.70
2019-04-07T10:54:23.394Z,30.50
2019-04-07T10:57:05.041Z,29.40
2019-04-07T10:59:55.718Z,28.40
2019-04-07T11:03:03.141Z,27.50
2019-04-07T11:05:54.956Z,27.00
2019-04-07T11:08:46.621Z,26.20
2019-04-07T11:11:25.701Z,25.90
2019-04-07T11:14:11.819Z,25.80
2019-04-07T11:17:10.050Z,25.80
2019-04-07T11:19:54.978Z,25.40
2019-04-07T11:22:41.677Z,25.00
2019-04-07T11:25:31.633Z,24.80
2019-04-07T11:28:19.656Z,24.80
2019-04-07T11:30:57.434Z,24.80
2019-04-07T11:33:48.411Z,24.80
2019-04-07T11:36:37.403Z,24.70
2019-04-07T11:39:32.637Z,24.40
2019-04-07T11:42:11.854Z,24.00
2019-04-07T11:45:06.224Z,23.70
2019-04-07T11:47:44.937Z,23.90
2019-04-07T11:50:21.200Z,24.10
2019-04-07T11:52:56.265Z,24.00
2019-04-07T11:55:46.476Z,23.60
2019-04-07T11:58:33.706Z,24.20
2019-04-07T12:01:27.147Z,24.50
2019-04-07T12:04:14.994Z,24.70
2019-04-07T12:07:01.062Z,24.60
2019-04-07T12:09:46.734Z,24.50
2019-04-07T12:12:26.572Z,24.30
2019-04-07T12:15:25.794Z,24.10
2019-04-07T12:18:16.842Z,23.90
2019-04-07T12:20:52.937Z,23.60
2019-04-07T12:23:38.688Z,23.70
2019-04-07T12:26:18.905Z,23.60
2019-04-07T12:29:05.902Z,23.60
2019-04-07T12:31:53.213Z,23.50
2019-04-07T12:34:37.491Z,23.30
2019-04-07T12:37:24.392Z,23.10
2019-04-07T12:40:12.829Z,22.90
2019-04-07T12:43:02.512Z,22.90
2019-04-07T12:45:53.857Z,22.70
2019-04-07T12:48:50.066Z,22.70
2019-04-07T12:51:30.846Z,22.60
2019-04-07T12:54:20.707Z,22.50
2019-04-07T12:57:20.782Z,22.60
2019-04-07T13:00:02.794Z,22.50
2019-04-07T13:02:54.396Z,22.60
2019-04-07T13:05:46.323Z,22.60
2019-04-07T13:08:24.614Z,22.80
2019-04-07T13:11:36.251Z,22.70
2019-04-07T13:14:24.542Z,22.80
2019-04-07T13:17:19.456Z,22.90
2019-04-07T13:20:08.332Z,22.80
2019-04-07T13:22:45.564Z,22.50
2019-04-07T13:25:31.297Z,22.40
2019-04-07T13:28:08.352Z,22.30
2019-04-07T13:30:54.885Z,22.10
2019-04-07T13:33:49.090Z,22.30
2019-04-07T13:36:25.364Z,22.10
2019-04-07T13:39:12.513Z,22.10
2019-04-07T13:42:01.050Z,22.20
2019-04-07T13:44:49.648Z,22.10
2019-04-07T13:47:34.079Z,21.90
2019-04-07T13:50:23.536Z,21.80
2019-04-07T13:53:14.791Z,21.80
2019-04-07T13:55:55.289Z,21.70
2019-04-07T13:58:40.054Z,21.90
2019-04-07T14:01:31.315Z,22.10
2019-04-07T14:04:37.792Z,22.40
2019-04-07T14:07:29.544Z,22.80
2019-04-07T14:10:27.481Z,23.20
2019-04-07T14:13:06.247Z,23.40
2019-04-07T14:15:57.689Z,23.40
2019-04-07T14:18:46.822Z,23.50
2019-04-07T14:21:30.650Z,23.50
2019-04-07T14:24:25.128Z,23.00
2019-04-07T14:27:15.841Z,22.50
2019-04-07T14:30:00.196Z,22.00
2019-04-07T14:32:50.984Z,22.00
2019-04-07T14:35:51.546Z,22.10
2019-04-07T14:38:48.245Z,22.20
2019-04-07T14:41:33.287Z,22.10
2019-04-07T14:44:22.473Z,22.20
2019-04-07T14:47:19.817Z,22.10
2019-04-07T14:50:12.108Z,22.00
2019-04-07T14:53:03.179Z,22.10
2019-04-07T14:56:05.401Z,22.30
2019-04-07T14:58:58.154Z,22.40
2019-04-07T15:01:46.894Z,22.40
2019-04-07T15:04:16.818Z,22.70
2019-04-07T15:06:47.632Z,22.80
2019-04-07T15:09:34.964Z,22.90
2019-04-07T15:12:17.629Z,23.00
2019-04-07T15:14:42.723Z,23.00
2019-04-07T15:17:12.062Z,23.10
2019-04-07T15:19:40.886Z,22.90
2019-04-07T15:22:09.680Z,22.80
2019-04-07T15:24:39.538Z,23.00
2019-04-07T15:27:08.409Z,22.90
2019-04-07T15:29:41.378Z,23.00
2019-04-07T15:32:07.344Z,23.10
2019-04-07T15:34:39.500Z,23.20
2019-04-07T15:37:07.919Z,23.00
2019-04-07T15:39:38.038Z,23.10
2019-04-07T15:42:09.316Z,23.00
2019-04-07T15:44:39.658Z,23.00
2019-04-07T15:47:07.914Z,23.00
2019-04-07T15:49:36.728Z,23.00
2019-04-07T15:52:08.165Z,23.00
2019-04-07T15:54:35.267Z,22.80
2019-04-07T15:57:04.630Z,22.70
2019-04-07T15:59:34.171Z,22.70
2019-04-07T16:02:02.987Z,22.50
2019-04-07T16:04:34.682Z,22.70
2019-04-07T16:07:05.156Z,22.90
2019-04-07T16:09:41.077Z,22.80
2019-04-07T16:12:06.366Z,22.70
2019-04-07T16:14:35.296Z,22.70
2019-04-07T16:17:05.665Z,22.70
2019-04-07T16:19:40.347Z,22.80
2019-04-07T16:22:04.589Z,22.90
2019-04-07T16:24:33.110Z,22.80
2019-04-07T16:27:04.503Z,22.90
2019-04-07T16:29:33.014Z,22.90
2019-04-07T16:32:01.935Z,22.80
2019-04-07T16:34:30.884Z,22.50
2019-04-07T16:37:00.402Z,22.40
2019-04-07T16:39:33.568Z,22.40
2019-04-07T16:42:02.047Z,22.30
2019-04-07T16:44:30.856Z,22.20
2019-04-07T16:47:03.908Z,22.20
2019-04-07T16:49:31.542Z,22.20
2019-04-07T16:52:02.191Z,22.20
2019-04-07T16:54:32.519Z,22.10
2019-04-07T16:57:01.951Z,22.10
2019-04-07T16:59:33.872Z,22.00
2019-04-07T17:02:03.752Z,21.90
2019-04-07T17:04:35.018Z,21.90
2019-04-07T17:07:08.887Z,21.80
2019-04-07T17:09:36.644Z,21.70
2019-04-07T17:12:09.341Z,21.70
2019-04-07T17:14:36.317Z,21.60
2019-04-07T17:17:05.851Z,21.50
2019-04-07T17:19:35.840Z,21.50
2019-04-07T17:22:04.682Z,21.40
2019-04-07T17:24:33.446Z,21.40
2019-04-07T17:27:03.124Z,21.30
2019-04-07T17:29:32.340Z,21.30
2019-04-07T17:32:02.422Z,21.20
2019-04-07T17:34:32.474Z,21.10
2019-04-07T17:37:01.541Z,21.10
2019-04-07T17:39:40.478Z,21.00
2019-04-07T17:42:12.180Z,20.90
2019-04-07T17:45:13.115Z,20.90
2019-04-07T17:48:17.126Z,20.80
2019-04-07T17:51:07.318Z,20.70
2019-04-07T17:53:55.465Z,20.60
2019-04-07T17:56:43.560Z,20.50
2019-04-07T17:59:37.787Z,20.40
2019-04-07T18:02:17.452Z,20.30
2019-04-07T18:05:06.543Z,20.20
2019-04-07T18:07:53.102Z,20.10
2019-04-07T18:10:40.111Z,20.10
2019-04-07T18:13:49.894Z,20.00
2019-04-07T18:16:42.911Z,19.90
2019-04-07T18:19:49.428Z,19.80
2019-04-07T18:22:46.390Z,19.70
2019-04-07T18:25:36.922Z,19.60
2019-04-07T18:28:21.496Z,19.50
2019-04-07T18:31:02.998Z,19.50
2019-04-07T18:33:51.733Z,19.40
2019-04-07T18:36:38.599Z,19.40
2019-04-07T18:39:27.558Z,19.30
2019-04-07T18:42:22.587Z,19.20
2019-04-07T18:45:19.596Z,19.10
2019-04-07T18:48:11.350Z,19.00
2019-04-07T18:50:58.752Z,18.90
2019-04-07T18:53:44.027Z,18.80
2019-04-07T18:56:35.007Z,18.80
2019-04-07T18:59:21.503Z,18.60
2019-04-07T19:02:16.553Z,18.50
2019-04-07T19:05:08.227Z,18.40
2019-04-07T19:07:59.467Z,18.20
2019-04-07T19:10:38.953Z,18.20
2019-04-07T19:13:17.376Z,18.10
2019-04-07T19:16:19.553Z,18.10
2019-04-07T19:19:12.623Z,18.00
2019-04-07T19:22:00.432Z,17.90
2019-04-07T19:24:49.551Z,17.90
2019-04-07T19:27:59.986Z,17.80
2019-04-07T19:30:48.475Z,17.70
2019-04-07T19:33:34.460Z,17.20
2019-04-07T19:36:25.332Z,17.00
2019-04-07T19:39:23.578Z,16.90
2019-04-07T19:42:09.025Z,16.90
2019-04-07T19:45:04.650Z,17.00
2019-04-07T19:47:59.325Z,17.00
2019-04-07T19:50:50.823Z,17.00
2019-04-07T19:53:45.586Z,17.00
2019-04-07T19:56:45.926Z,17.00
2019-04-07T19:59:33.961Z,16.90
2019-04-07T20:02:22.672Z,16.80
2019-04-07T20:05:12.311Z,16.80
2019-04-07T20:08:02.881Z,16.70
2019-04-07T20:10:51.892Z,16.60
2019-04-07T20:13:39.582Z,16.50
2019-04-07T20:16:19.804Z,16.50
2019-04-07T20:18:59.908Z,16.50
2019-04-07T20:21:53.640Z,16.30
2019-04-07T20:24:54.116Z,16.20
2019-04-07T20:27:56.008Z,16.10
2019-04-07T20:30:45.612Z,15.90
2019-04-07T20:33:43.419Z,15.80
2019-04-07T20:36:34.664Z,15.60
2019-04-07T20:39:15.059Z,15.40
2019-04-07T20:42:03.050Z,15.40
2019-04-07T20:44:59.962Z,15.50
2019-04-07T20:47:39.007Z,15.50
2019-04-07T20:50:26.356Z,15.40
2019-04-07T20:53:22.232Z,15.30
2019-04-07T20:56:01.563Z,15.20
2019-04-07T20:58:56.669Z,15.10
2019-04-07T21:01:33.633Z,15.00
2019-04-07T21:04:19.932Z,15.10
2019-04-07T21:07:13.855Z,15.00
2019-04-07T21:09:55.510Z,15.00
2019-04-07T21:12:48.338Z,14.90
2019-04-07T21:15:33.817Z,14.80
2019-04-07T21:18:34.428Z,14.70
2019-04-07T21:21:41.638Z,14.60
2019-04-07T21:24:28.113Z,14.40
2019-04-07T21:27:06.608Z,14.20
2019-04-07T21:29:54.980Z,14.30
2019-04-07T21:32:42.929Z,14.30
2019-04-07T21:35:24.433Z,14.40
2019-04-07T21:38:21.844Z,14.50
2019-04-07T21:40:59.835Z,14.40
2019-04-07T21:43:40.445Z,14.40
2019-04-07T21:46:27.039Z,14.40
2019-04-07T21:49:11.979Z,14.30
2019-04-07T21:52:08.045Z,14.30
2019-04-07T21:54:46.736Z,14.20
2019-04-07T21:57:57.047Z,14.10
2019-04-07T22:00:41.746Z,14.10
2019-04-07T22:03:29.015Z,14.00
2019-04-07T22:06:30.807Z,13.90
2019-04-07T22:09:14.695Z,13.90
2019-04-07T22:11:45.044Z,13.90
2019-04-07T22:14:14.675Z,13.80
2019-04-07T22:16:43.193Z,13.70
2019-04-07T22:19:14.758Z,13.70
2019-04-07T22:21:42.734Z,13.70
2019-04-07T22:24:11.383Z,13.70
2019-04-07T22:26:40.586Z,13.70
2019-04-07T22:29:09.819Z,13.60
2019-04-07T22:31:58.251Z,13.60
2019-04-07T22:34:29.838Z,13.60
2019-04-07T22:36:57.958Z,13.50
2019-04-07T22:39:28.842Z,13.50
2019-04-07T22:41:58.268Z,13.40
2019-04-07T22:44:27.032Z,13.40
2019-04-07T22:46:56.455Z,13.40
2019-04-07T22:49:28.609Z,13.30
2019-04-07T22:51:56.771Z,13.30
2019-04-07T22:54:29.511Z,13.20
2019-04-07T22:56:56.659Z,13.20
2019-04-07T22:59:25.978Z,13.10
2019-04-07T23:01:55.707Z,13.10
2019-04-07T23:04:24.420Z,13.10
2019-04-07T23:06:53.194Z,13.10
2019-04-07T23:09:21.937Z,13.10
2019-04-07T23:11:52.729Z,13.10
2019-04-07T23:14:21.328Z,13.10
2019-04-07T23:16:50.063Z,13.10
2019-04-07T23:19:18.767Z,13.00
2019-04-07T23:21:47.447Z,13.00
2019-04-07T23:24:17.132Z,13.00
2019-04-07T23:26:45.673Z,12.90
2019-04-07T23:29:14.423Z,12.90
2019-04-07T23:31:44.063Z,12.80
2019-04-07T23:34:12.847Z,12.80
2019-04-07T23:36:41.434Z,12.70
2019-04-07T23:39:09.994Z,12.70
2019-04-07T23:41:39.417Z,12.60
2019-04-07T23:44:08.066Z,12.60
2019-04-07T23:46:37.046Z,12.60
2019-04-07T23:49:05.828Z,12.60
2019-04-07T23:51:35.151Z,12.60
2019-04-07T23:54:09.156Z,12.60
2019-04-07T23:56:39.513Z,12.50
2019-04-07T23:59:08.860Z,12.50
